Terminal Aerodrome Forecast
Issued by NWS

Home | Current Version | Previous Version | Text Only | Print | Product List | Glossary On
Versions: 1 2 3 4 5 6 7 8 9 10 11 12 13 14 15 16 17 18 19 20 21 22 23 24 25
000
FTUS43 KDMX 230520
TAFMCW
TAF
KMCW 230520Z 2306/2406 17008KT P6SM SKC WS020/23035KT
     FM231300 26008G18KT P6SM VCSH BKN100 WS020/29035KT
     FM231600 29015G22KT P6SM BKN110
     FM232200 31022G30KT P6SM VCSH BKN030 BKN060
     FM240200 31022G30KT P6SM SCT030 BKN200
     FM240500 32015G26KT P6SM SCT180 WS020/33040KT=

USA.gov is the U.S. government's official web portal to all federal, state and local government web resources and services.